createdAt,value
2022-11-29T00:01:11.866Z,8.90
2022-11-29T00:03:38.685Z,8.90
2022-11-29T00:06:07.393Z,8.90
2022-11-29T00:08:35.005Z,8.90
2022-11-29T00:11:10.194Z,8.90
2022-11-29T00:13:37.418Z,8.90
2022-11-29T00:16:06.417Z,8.90
2022-11-29T00:18:33.346Z,8.90
2022-11-29T00:21:00.398Z,8.90
2022-11-29T00:23:27.231Z,8.90
2022-11-29T00:25:53.981Z,8.90
2022-11-29T00:28:20.701Z,8.90
2022-11-29T00:30:47.500Z,8.90
2022-11-29T00:33:14.265Z,8.90
2022-11-29T00:35:40.936Z,8.90
2022-11-29T00:38:07.850Z,8.90
2022-11-29T00:40:34.555Z,8.90
2022-11-29T00:43:01.292Z,8.90
2022-11-29T00:45:28.191Z,8.90
2022-11-29T00:47:54.994Z,8.90
2022-11-29T00:50:21.770Z,8.90
2022-11-29T00:52:48.697Z,8.90
2022-11-29T00:55:15.664Z,8.90
2022-11-29T00:57:42.461Z,8.90
2022-11-29T01:00:09.824Z,8.90
2022-11-29T01:02:36.628Z,8.90
2022-11-29T01:05:03.430Z,8.90
2022-11-29T01:07:30.295Z,8.90
2022-11-29T01:09:57.034Z,8.90
2022-11-29T01:12:23.792Z,8.90
2022-11-29T01:14:50.486Z,8.90
2022-11-29T01:17:17.230Z,8.90
2022-11-29T01:19:49.304Z,8.90
2022-11-29T01:22:17.511Z,8.90
2022-11-29T01:24:44.604Z,8.90
2022-11-29T01:27:11.678Z,8.90
2022-11-29T01:29:39.024Z,8.90
2022-11-29T01:32:05.744Z,8.90
2022-11-29T01:34:32.435Z,8.90
2022-11-29T01:36:59.215Z,8.90
2022-11-29T01:39:26.037Z,8.90
2022-11-29T01:41:52.830Z,8.90
2022-11-29T01:44:19.497Z,8.90
2022-11-29T01:46:47.816Z,8.90
2022-11-29T01:49:21.041Z,8.90
2022-11-29T01:51:53.714Z,8.90
2022-11-29T01:54:20.927Z,8.90
2022-11-29T01:56:49.449Z,9.00
2022-11-29T01:59:19.160Z,9.00
2022-11-29T02:01:46.163Z,9.00
2022-11-29T02:04:13.770Z,9.00
2022-11-29T02:06:41.729Z,9.00
2022-11-29T02:09:23.253Z,9.00
2022-11-29T02:12:11.427Z,9.00
2022-11-29T02:14:44.398Z,9.00
2022-11-29T02:17:30.505Z,9.00
2022-11-29T02:20:20.226Z,9.00
2022-11-29T02:22:59.513Z,9.00
2022-11-29T02:26:15.711Z,9.00
2022-11-29T02:28:58.097Z,9.00
2022-11-29T02:31:33.672Z,9.00
2022-11-29T02:34:15.239Z,9.00
2022-11-29T02:37:26.346Z,9.00
2022-11-29T02:39:58.838Z,9.00
2022-11-29T02:42:52.580Z,9.00
2022-11-29T02:45:28.940Z,9.00
2022-11-29T02:48:15.299Z,9.00
2022-11-29T02:51:06.590Z,9.00
2022-11-29T02:53:44.046Z,9.00
2022-11-29T02:56:19.720Z,9.00
2022-11-29T02:59:10.581Z,9.00
2022-11-29T03:02:03.994Z,9.00
2022-11-29T03:04:49.551Z,9.00
2022-11-29T03:07:48.904Z,9.00
2022-11-29T03:10:18.536Z,9.00
2022-11-29T03:12:48.318Z,9.00
2022-11-29T03:15:30.274Z,9.00
2022-11-29T03:18:04.346Z,9.00
2022-11-29T03:20:58.470Z,9.00
2022-11-29T03:23:45.517Z,9.00
2022-11-29T03:26:19.167Z,9.00
2022-11-29T03:28:52.779Z,9.00
2022-11-29T03:31:23.711Z,9.00
2022-11-29T03:33:58.990Z,9.00
2022-11-29T03:37:04.416Z,9.00
2022-11-29T03:39:46.714Z,9.00
2022-11-29T03:42:28.707Z,9.00
2022-11-29T03:45:16.469Z,9.00
2022-11-29T03:47:53.626Z,9.00
2022-11-29T03:50:52.543Z,9.00
2022-11-29T03:53:37.249Z,9.00
2022-11-29T03:56:28.149Z,9.00
2022-11-29T03:59:13.242Z,9.00
2022-11-29T04:01:49.130Z,9.00
2022-11-29T04:04:24.475Z,9.00
2022-11-29T04:07:09.798Z,9.00
2022-11-29T04:09:51.733Z,9.00
2022-11-29T04:13:00.908Z,9.00
2022-11-29T04:15:33.571Z,9.10
2022-11-29T04:18:12.523Z,9.00
2022-11-29T04:21:13.348Z,9.00
2022-11-29T04:24:01.719Z,9.10
2022-11-29T04:27:09.631Z,9.10
2022-11-29T04:29:48.246Z,9.10
2022-11-29T04:32:17.679Z,9.10
2022-11-29T04:35:06.060Z,9.10
2022-11-29T04:38:01.717Z,9.10
2022-11-29T04:41:02.445Z,9.10
2022-11-29T04:43:35.081Z,9.10
2022-11-29T04:46:39.669Z,9.10
2022-11-29T04:49:29.033Z,9.10
2022-11-29T04:52:13.986Z,9.10
2022-11-29T04:55:11.718Z,9.10
2022-11-29T04:57:44.078Z,9.10
2022-11-29T05:00:19.296Z,9.10
2022-11-29T05:03:01.942Z,9.10
2022-11-29T05:06:00.721Z,9.10
2022-11-29T05:08:47.765Z,9.10
2022-11-29T05:11:23.429Z,9.10
2022-11-29T05:13:59.103Z,9.10
2022-11-29T05:16:47.700Z,9.10
2022-11-29T05:19:51.903Z,9.10
2022-11-29T05:22:34.176Z,9.10
2022-11-29T05:25:31.295Z,9.10
2022-11-29T05:28:25.844Z,9.10
2022-11-29T05:31:18.905Z,9.10
2022-11-29T05:34:00.914Z,9.10
2022-11-29T05:36:43.563Z,9.10
2022-11-29T05:39:34.435Z,9.10
2022-11-29T05:42:16.282Z,9.10
2022-11-29T05:44:53.977Z,9.20
2022-11-29T05:47:48.974Z,9.20
2022-11-29T05:50:41.774Z,9.20
2022-11-29T05:53:27.234Z,9.20
2022-11-29T05:56:16.673Z,9.20
2022-11-29T05:58:49.429Z,9.20
2022-11-29T06:01:29.595Z,9.20
2022-11-29T06:04:41.230Z,9.20
2022-11-29T06:07:30.926Z,9.20
2022-11-29T06:10:15.079Z,9.20
2022-11-29T06:12:43.581Z,9.20
2022-11-29T06:15:36.314Z,9.20
2022-11-29T06:18:40.490Z,9.20
2022-11-29T06:21:45.290Z,9.20
2022-11-29T06:24:39.888Z,9.20
2022-11-29T06:27:09.360Z,9.20
2022-11-29T06:29:51.868Z,9.20
2022-11-29T06:32:37.401Z,9.20
2022-11-29T06:35:11.239Z,9.20
2022-11-29T06:37:41.850Z,9.30
2022-11-29T06:40:16.015Z,9.30
2022-11-29T06:42:42.957Z,9.30
2022-11-29T06:45:14.123Z,9.30
2022-11-29T06:47:57.951Z,9.30
2022-11-29T06:51:02.075Z,9.30
2022-11-29T06:53:41.899Z,9.30
2022-11-29T06:56:27.383Z,9.30
2022-11-29T06:58:57.285Z,9.30
2022-11-29T07:02:04.403Z,9.30
2022-11-29T07:05:01.405Z,9.30
2022-11-29T07:07:28.549Z,9.30
2022-11-29T07:10:00.364Z,9.30
2022-11-29T07:12:27.376Z,9.30
2022-11-29T07:14:54.445Z,9.30
2022-11-29T07:18:11.129Z,9.30
2022-11-29T07:21:02.675Z,9.30
2022-11-29T07:23:49.719Z,9.30
2022-11-29T07:26:35.033Z,9.30
2022-11-29T07:29:25.882Z,9.30
2022-11-29T07:32:26.830Z,9.30
2022-11-29T07:35:03.689Z,9.30
2022-11-29T07:37:51.978Z,9.30
2022-11-29T07:40:22.230Z,9.30
2022-11-29T07:43:22.234Z,9.30
2022-11-29T07:45:49.970Z,9.30
2022-11-29T07:48:17.698Z,9.30
2022-11-29T07:50:45.271Z,9.30
2022-11-29T07:53:17.737Z,9.30
2022-11-29T07:55:45.149Z,9.30
2022-11-29T07:58:13.036Z,9.30
2022-11-29T08:00:41.961Z,9.30
2022-11-29T08:03:09.714Z,9.30
2022-11-29T08:05:37.856Z,9.30
2022-11-29T08:08:05.652Z,9.30
2022-11-29T08:10:32.452Z,9.30
2022-11-29T08:12:59.309Z,9.30
2022-11-29T08:15:26.288Z,9.30
2022-11-29T08:17:53.589Z,9.30
2022-11-29T08:20:20.635Z,9.30
2022-11-29T08:22:58.746Z,9.30
2022-11-29T08:25:27.215Z,9.30
2022-11-29T08:27:57.057Z,9.40
2022-11-29T08:30:24.162Z,9.40
2022-11-29T08:32:51.957Z,9.30
2022-11-29T08:35:20.282Z,9.40
2022-11-29T08:37:47.330Z,9.40
2022-11-29T08:40:14.771Z,9.40
2022-11-29T08:42:41.665Z,9.40
2022-11-29T08:45:09.759Z,9.40
2022-11-29T08:47:37.708Z,9.40
2022-11-29T08:50:22.550Z,10.10
2022-11-29T08:53:08.941Z,10.80
2022-11-29T08:55:39.977Z,11.20
2022-11-29T08:58:10.071Z,11.60
2022-11-29T09:00:37.749Z,11.80
2022-11-29T09:03:25.425Z,11.80
2022-11-29T09:05:52.836Z,11.70
2022-11-29T09:08:19.965Z,11.40
2022-11-29T09:10:47.520Z,11.30
2022-11-29T09:13:14.962Z,11.10
2022-11-29T09:15:43.666Z,11.00
2022-11-29T09:18:10.663Z,10.80
2022-11-29T09:20:37.414Z,10.70
2022-11-29T09:23:04.801Z,10.60
2022-11-29T09:25:31.653Z,10.50
2022-11-29T09:28:02.789Z,10.40
2022-11-29T09:30:35.008Z,10.40
2022-11-29T09:33:05.223Z,10.30
2022-11-29T09:35:32.998Z,10.30
2022-11-29T09:38:00.237Z,10.20
2022-11-29T09:41:01.483Z,10.20
2022-11-29T09:43:50.111Z,10.10
2022-11-29T09:46:45.686Z,10.10
2022-11-29T09:49:30.627Z,10.10
2022-11-29T09:52:20.040Z,10.10
2022-11-29T09:54:55.467Z,10.00
2022-11-29T09:57:25.002Z,10.00
2022-11-29T09:59:56.786Z,10.00
2022-11-29T10:02:35.227Z,10.00
2022-11-29T10:05:25.566Z,10.00
2022-11-29T10:07:58.870Z,10.00
2022-11-29T10:10:33.433Z,9.90
2022-11-29T10:13:26.551Z,9.90
2022-11-29T10:15:57.889Z,9.90
2022-11-29T10:19:08.636Z,9.90
2022-11-29T10:21:38.455Z,9.90
2022-11-29T10:24:13.475Z,9.90
2022-11-29T10:26:41.427Z,9.90
2022-11-29T10:29:14.016Z,9.90
2022-11-29T10:31:44.115Z,9.90
2022-11-29T10:34:17.463Z,9.90
2022-11-29T10:37:04.633Z,9.90
2022-11-29T10:39:39.721Z,9.90
2022-11-29T10:42:33.975Z,9.90
2022-11-29T10:45:00.975Z,9.90
2022-11-29T10:47:27.990Z,9.90
2022-11-29T10:49:54.961Z,9.90
2022-11-29T10:52:23.351Z,9.90
2022-11-29T10:54:58.513Z,9.90
2022-11-29T10:57:25.569Z,9.90
2022-11-29T11:00:18.607Z,9.90
2022-11-29T11:02:45.432Z,9.90
2022-11-29T11:05:18.848Z,9.90
2022-11-29T11:07:47.381Z,9.90
2022-11-29T11:10:29.622Z,9.90
2022-11-29T11:13:04.881Z,10.00
2022-11-29T11:15:32.867Z,9.90
2022-11-29T11:18:06.701Z,9.90
2022-11-29T11:20:37.453Z,9.90
2022-11-29T11:23:07.491Z,9.90
2022-11-29T11:25:39.125Z,9.90
2022-11-29T11:28:25.261Z,9.90
2022-11-29T11:30:55.788Z,9.90
2022-11-29T11:33:26.959Z,9.90
2022-11-29T11:36:02.831Z,9.90
2022-11-29T11:38:30.355Z,9.90
2022-11-29T11:41:15.791Z,9.90
2022-11-29T11:43:49.376Z,9.90
2022-11-29T11:46:18.104Z,9.90
2022-11-29T11:48:46.693Z,9.90
2022-11-29T11:51:25.514Z,9.90
2022-11-29T11:53:56.890Z,9.90
2022-11-29T11:56:24.516Z,10.00
2022-11-29T11:58:57.964Z,10.00
2022-11-29T12:01:27.359Z,10.00
2022-11-29T12:04:02.981Z,10.00
2022-11-29T12:07:11.242Z,10.00
2022-11-29T12:09:55.938Z,10.00
2022-11-29T12:12:29.954Z,9.90
2022-11-29T12:15:05.697Z,10.00
2022-11-29T12:18:01.018Z,10.00
2022-11-29T12:21:11.178Z,10.00
2022-11-29T12:23:57.641Z,10.00
2022-11-29T12:26:55.820Z,10.00
2022-11-29T12:29:19.210Z,10.00
2022-11-29T12:32:14.538Z,10.00
2022-11-29T12:35:01.109Z,9.90
2022-11-29T12:37:48.344Z,10.00
2022-11-29T12:40:32.498Z,10.00
2022-11-29T12:43:10.835Z,10.00
2022-11-29T12:45:49.448Z,10.00
2022-11-29T12:48:35.007Z,10.00
2022-11-29T12:51:23.190Z,10.00
2022-11-29T12:54:03.690Z,10.00
2022-11-29T12:56:38.474Z,10.00
2022-11-29T12:59:20.852Z,10.00
2022-11-29T13:01:47.624Z,10.00
2022-11-29T13:04:41.835Z,10.00
2022-11-29T13:07:23.906Z,10.00
2022-11-29T13:10:23.129Z,10.00
2022-11-29T13:13:00.925Z,10.00
2022-11-29T13:16:05.929Z,10.00
2022-11-29T13:19:01.816Z,10.00
2022-11-29T13:22:05.832Z,10.00
2022-11-29T13:24:50.651Z,10.00
2022-11-29T13:27:22.426Z,10.00
2022-11-29T13:29:49.318Z,10.00
2022-11-29T13:32:40.013Z,10.00
2022-11-29T13:35:18.511Z,10.00
2022-11-29T13:37:59.115Z,10.00
2022-11-29T13:40:28.830Z,10.00
2022-11-29T13:42:55.513Z,10.00
2022-11-29T13:45:29.891Z,10.00
2022-11-29T13:48:00.236Z,10.00
2022-11-29T13:50:40.685Z,10.00
2022-11-29T13:53:19.906Z,10.00
2022-11-29T13:55:48.381Z,10.00
2022-11-29T13:58:17.448Z,10.00
2022-11-29T14:00:44.680Z,10.00
2022-11-29T14:03:23.502Z,10.00
2022-11-29T14:06:03.631Z,10.00
2022-11-29T14:09:16.787Z,9.90
2022-11-29T14:11:42.560Z,9.90
2022-11-29T14:14:21.304Z,9.90
2022-11-29T14:16:52.342Z,9.90
2022-11-29T14:19:19.591Z,9.90
2022-11-29T14:22:07.161Z,9.90
2022-11-29T14:24:36.865Z,9.90
2022-11-29T14:27:06.778Z,9.90
2022-11-29T14:29:53.501Z,9.80
2022-11-29T14:32:45.793Z,9.90
2022-11-29T14:35:13.129Z,9.90
2022-11-29T14:38:10.637Z,9.90
2022-11-29T14:41:03.163Z,9.80
2022-11-29T14:43:35.658Z,9.80
2022-11-29T14:46:14.620Z,9.80
2022-11-29T14:48:54.738Z,9.80
2022-11-29T14:51:23.890Z,9.80
2022-11-29T14:54:13.195Z,9.80
2022-11-29T14:56:45.007Z,9.80
2022-11-29T14:59:46.703Z,9.80
2022-11-29T15:02:34.152Z,9.80
2022-11-29T15:05:33.652Z,9.80
2022-11-29T15:08:27.117Z,9.80
2022-11-29T15:11:01.012Z,9.80
2022-11-29T15:13:36.177Z,9.80
2022-11-29T15:16:23.896Z,9.70
2022-11-29T15:19:15.754Z,9.70
2022-11-29T15:21:58.012Z,9.70
2022-11-29T15:24:28.788Z,9.70
2022-11-29T15:26:56.784Z,9.70
2022-11-29T15:29:23.720Z,9.70
2022-11-29T15:31:54.510Z,9.70
2022-11-29T15:34:37.046Z,9.70
2022-11-29T15:37:04.966Z,9.70
2022-11-29T15:39:33.116Z,9.70
2022-11-29T15:42:02.721Z,9.70
2022-11-29T15:44:32.673Z,9.70
2022-11-29T15:47:21.458Z,9.70
2022-11-29T15:49:48.872Z,9.70
2022-11-29T15:52:31.098Z,9.70
2022-11-29T15:55:05.878Z,9.70
2022-11-29T15:57:38.169Z,9.70
2022-11-29T16:00:15.666Z,9.70
2022-11-29T16:02:50.219Z,9.70
2022-11-29T16:05:22.921Z,9.70
2022-11-29T16:08:03.732Z,9.60
2022-11-29T16:10:43.679Z,9.60
2022-11-29T16:13:25.859Z,9.70
2022-11-29T16:16:16.015Z,9.70
2022-11-29T16:18:45.431Z,9.60
2022-11-29T16:21:22.606Z,9.60
2022-11-29T16:23:49.640Z,9.60
2022-11-29T16:26:27.421Z,9.60
2022-11-29T16:28:59.140Z,9.60
2022-11-29T16:31:37.991Z,9.60
2022-11-29T16:34:09.886Z,9.60
2022-11-29T16:36:37.046Z,9.60
2022-11-29T16:39:23.949Z,9.60
2022-11-29T16:42:25.757Z,9.60
2022-11-29T16:45:01.916Z,9.60
2022-11-29T16:47:57.980Z,9.60
2022-11-29T16:50:26.932Z,9.60
2022-11-29T16:52:56.787Z,9.60
2022-11-29T16:55:24.359Z,9.60
2022-11-29T16:57:52.831Z,9.60
2022-11-29T17:00:32.626Z,9.60
2022-11-29T17:03:00.045Z,9.60
2022-11-29T17:05:27.183Z,9.60
2022-11-29T17:07:54.544Z,9.60
2022-11-29T17:10:25.003Z,9.50
2022-11-29T17:12:51.891Z,9.50
2022-11-29T17:15:18.831Z,9.60
2022-11-29T17:17:45.918Z,9.60
2022-11-29T17:20:13.781Z,9.50
2022-11-29T17:22:41.445Z,9.60
2022-11-29T17:25:09.053Z,9.50
2022-11-29T17:27:36.417Z,9.50
2022-11-29T17:30:04.903Z,9.50
2022-11-29T17:32:34.608Z,9.50
2022-11-29T17:35:01.500Z,9.50
2022-11-29T17:37:30.596Z,9.50
2022-11-29T17:39:57.529Z,9.50
2022-11-29T17:42:24.455Z,9.50
2022-11-29T17:44:51.312Z,9.50
2022-11-29T17:47:18.317Z,9.50
2022-11-29T17:49:46.222Z,9.50
2022-11-29T17:52:13.117Z,9.50
2022-11-29T17:54:40.544Z,9.50
2022-11-29T17:57:07.470Z,9.50
2022-11-29T17:59:34.339Z,9.50
2022-11-29T18:02:02.168Z,9.50
2022-11-29T18:04:29.510Z,9.50
2022-11-29T18:06:56.254Z,9.50
2022-11-29T18:09:23.558Z,9.50
2022-11-29T18:11:50.854Z,9.50
2022-11-29T18:14:28.380Z,9.50
2022-11-29T18:16:55.503Z,9.50
2022-11-29T18:19:23.601Z,9.40
2022-11-29T18:21:51.306Z,9.40
2022-11-29T18:24:18.579Z,9.40
2022-11-29T18:26:45.969Z,9.40
2022-11-29T18:29:12.665Z,9.40
2022-11-29T18:31:42.190Z,9.40
2022-11-29T18:34:10.529Z,9.40
2022-11-29T18:36:42.921Z,9.40
2022-11-29T18:39:14.264Z,9.40
2022-11-29T18:41:44.906Z,9.40
2022-11-29T18:44:14.649Z,9.40
2022-11-29T18:46:43.532Z,9.40
2022-11-29T18:49:13.538Z,9.40
2022-11-29T18:51:43.076Z,9.40
2022-11-29T18:54:10.530Z,9.40
2022-11-29T18:56:38.583Z,9.40
2022-11-29T18:59:10.409Z,9.40
2022-11-29T19:01:41.158Z,9.40
2022-11-29T19:04:11.091Z,9.40
2022-11-29T19:06:39.949Z,9.40
2022-11-29T19:09:11.792Z,9.40
2022-11-29T19:11:39.185Z,9.40
2022-11-29T19:14:11.881Z,9.40
2022-11-29T19:16:41.710Z,9.40
2022-11-29T19:19:09.390Z,9.40
2022-11-29T19:21:36.556Z,9.40
2022-11-29T19:24:07.747Z,9.40
2022-11-29T19:26:35.327Z,9.30
2022-11-29T19:29:03.227Z,9.30
2022-11-29T19:31:30.206Z,9.30
2022-11-29T19:33:58.337Z,9.30
2022-11-29T19:36:27.734Z,9.30
2022-11-29T19:38:56.211Z,9.30
2022-11-29T19:41:27.071Z,9.30
2022-11-29T19:43:57.384Z,9.30
2022-11-29T19:46:31.076Z,9.30
2022-11-29T19:48:59.338Z,9.30
2022-11-29T19:51:27.651Z,9.30
2022-11-29T19:53:58.739Z,9.30
2022-11-29T19:56:26.328Z,9.30
2022-11-29T19:58:54.586Z,9.20
2022-11-29T20:01:25.885Z,9.30
2022-11-29T20:03:55.555Z,9.20
2022-11-29T20:06:25.101Z,9.20
2022-11-29T20:08:52.035Z,9.20
2022-11-29T20:11:24.673Z,9.20
2022-11-29T20:14:02.547Z,9.20
2022-11-29T20:16:32.344Z,9.20
2022-11-29T20:18:59.967Z,9.20
2022-11-29T20:21:32.256Z,9.20
2022-11-29T20:24:04.793Z,9.20
2022-11-29T20:26:33.528Z,9.20
2022-11-29T20:29:01.805Z,9.20
2022-11-29T20:31:29.074Z,9.20
2022-11-29T20:33:57.519Z,9.20
2022-11-29T20:36:51.055Z,9.20
2022-11-29T20:39:36.662Z,9.20
2022-11-29T20:42:51.527Z,9.20
2022-11-29T20:45:18.786Z,9.20
2022-11-29T20:47:49.190Z,9.20
2022-11-29T20:50:23.702Z,9.20
2022-11-29T20:53:17.223Z,9.20
2022-11-29T20:55:47.928Z,9.20
2022-11-29T20:58:15.871Z,9.20
2022-11-29T21:00:43.355Z,9.20
2022-11-29T21:03:14.267Z,9.20
2022-11-29T21:05:41.261Z,9.20
2022-11-29T21:08:08.156Z,9.20
2022-11-29T21:10:35.339Z,9.20
2022-11-29T21:13:03.174Z,9.20
2022-11-29T21:15:30.393Z,9.20
2022-11-29T21:17:57.539Z,9.20
2022-11-29T21:20:26.526Z,9.20
2022-11-29T21:23:14.020Z,9.20
2022-11-29T21:25:55.916Z,9.20
2022-11-29T21:28:29.141Z,9.20
2022-11-29T21:30:56.323Z,9.20
2022-11-29T21:33:23.520Z,9.20
2022-11-29T21:35:54.469Z,9.20
2022-11-29T21:38:22.991Z,9.20
2022-11-29T21:40:49.848Z,9.20
2022-11-29T21:43:17.038Z,9.20
2022-11-29T21:45:47.519Z,9.20
2022-11-29T21:48:33.320Z,9.20
2022-11-29T21:51:00.203Z,9.20
2022-11-29T21:53:28.043Z,9.20
2022-11-29T21:55:59.368Z,9.20
2022-11-29T21:58:28.648Z,9.20
2022-11-29T22:00:55.660Z,9.20
2022-11-29T22:03:22.756Z,9.20
2022-11-29T22:05:49.498Z,9.20
2022-11-29T22:08:16.317Z,9.20
2022-11-29T22:10:43.296Z,9.20
2022-11-29T22:13:10.127Z,9.20
2022-11-29T22:15:36.940Z,9.20
2022-11-29T22:18:03.972Z,9.20
2022-11-29T22:20:30.814Z,9.20
2022-11-29T22:22:58.930Z,9.20
2022-11-29T22:25:25.910Z,9.10
2022-11-29T22:27:52.727Z,9.10
2022-11-29T22:30:19.650Z,9.10
2022-11-29T22:32:46.533Z,9.10
2022-11-29T22:35:13.467Z,9.10
2022-11-29T22:37:40.738Z,9.20
2022-11-29T22:40:08.249Z,9.20
2022-11-29T22:42:35.194Z,9.20
2022-11-29T22:45:04.270Z,9.10
2022-11-29T22:47:31.320Z,9.10
2022-11-29T22:49:58.460Z,9.10
2022-11-29T22:52:25.466Z,9.10
2022-11-29T22:54:52.377Z,9.10
2022-11-29T22:57:19.223Z,9.10
2022-11-29T22:59:46.049Z,9.10
2022-11-29T23:02:13.311Z,9.10
2022-11-29T23:04:40.266Z,9.10
2022-11-29T23:07:07.016Z,9.10
2022-11-29T23:09:33.886Z,9.10
2022-11-29T23:12:00.883Z,9.00
2022-11-29T23:14:27.626Z,9.00
2022-11-29T23:16:54.610Z,9.00
2022-11-29T23:19:21.488Z,9.00
2022-11-29T23:21:48.439Z,9.00
2022-11-29T23:24:15.992Z,9.00
2022-11-29T23:26:45.771Z,9.00
2022-11-29T23:29:16.687Z,9.00
2022-11-29T23:31:43.798Z,9.00
2022-11-29T23:34:10.798Z,9.00
2022-11-29T23:36:37.650Z,9.00
2022-11-29T23:39:06.783Z,9.00
2022-11-29T23:41:35.496Z,9.00
2022-11-29T23:44:04.437Z,9.00
2022-11-29T23:46:31.125Z,9.00
2022-11-29T23:48:57.996Z,9.00
2022-11-29T23:51:24.840Z,9.00
2022-11-29T23:53:55.120Z,9.00
2022-11-29T23:56:22.738Z,8.90
2022-11-29T23:58:49.786Z,8.90
